sensor_id;sensor_type;location;lat;lon;timestamp;temperature;humidity
1786;DHT22;890;48.158;11.540;2022-09-21T00:01:07;10.20;81.80
1786;DHT22;890;48.158;11.540;2022-09-21T00:03:34;10.10;81.90
1786;DHT22;890;48.158;11.540;2022-09-21T00:06:04;10.20;82.00
1786;DHT22;890;48.158;11.540;2022-09-21T00:08:30;10.20;82.20
1786;DHT22;890;48.158;11.540;2022-09-21T00:10:55;10.10;82.30
1786;DHT22;890;48.158;11.540;2022-09-21T00:13:21;10.10;82.50
1786;DHT22;890;48.158;11.540;2022-09-21T00:15:46;10.10;82.70
1786;DHT22;890;48.158;11.540;2022-09-21T00:18:12;10.10;82.80
1786;DHT22;890;48.158;11.540;2022-09-21T00:20:40;10.10;83.00
1786;DHT22;890;48.158;11.540;2022-09-21T00:23:08;10.00;83.10
1786;DHT22;890;48.158;11.540;2022-09-21T00:25:34;10.00;83.20
1786;DHT22;890;48.158;11.540;2022-09-21T00:28:00;10.00;83.30
1786;DHT22;890;48.158;11.540;2022-09-21T00:30:25;10.00;83.50
1786;DHT22;890;48.158;11.540;2022-09-21T00:32:52;10.00;83.40
1786;DHT22;890;48.158;11.540;2022-09-21T00:35:18;10.00;83.40
1786;DHT22;890;48.158;11.540;2022-09-21T00:37:43;10.00;83.60
1786;DHT22;890;48.158;11.540;2022-09-21T00:40:09;10.00;83.50
1786;DHT22;890;48.158;11.540;2022-09-21T00:42:35;10.00;83.70
1786;DHT22;890;48.158;11.540;2022-09-21T00:45:02;10.10;83.80
1786;DHT22;890;48.158;11.540;2022-09-21T00:49:55;10.10;83.80
1786;DHT22;890;48.158;11.540;2022-09-21T00:52:23;10.10;84.10
1786;DHT22;890;48.158;11.540;2022-09-21T00:54:55;10.10;84.20
1786;DHT22;890;48.158;11.540;2022-09-21T00:57:24;10.00;84.10
1786;DHT22;890;48.158;11.540;2022-09-21T00:59:54;10.00;84.30
1786;DHT22;890;48.158;11.540;2022-09-21T01:02:21;10.00;84.30
1786;DHT22;890;48.158;11.540;2022-09-21T01:04:47;9.90;85.60
1786;DHT22;890;48.158;11.540;2022-09-21T01:07:20;9.90;85.90
1786;DHT22;890;48.158;11.540;2022-09-21T01:09:51;9.80;86.30
1786;DHT22;890;48.158;11.540;2022-09-21T01:15:27;9.70;87.00
1786;DHT22;890;48.158;11.540;2022-09-21T01:21:01;9.70;86.60
1786;DHT22;890;48.158;11.540;2022-09-21T01:23:53;9.70;86.60
1786;DHT22;890;48.158;11.540;2022-09-21T01:34:59;9.70;86.80
1786;DHT22;890;48.158;11.540;2022-09-21T01:38:09;9.60;86.70
1786;DHT22;890;48.158;11.540;2022-09-21T01:40:38;9.60;86.80
1786;DHT22;890;48.158;11.540;2022-09-21T01:43:08;9.70;86.80
1786;DHT22;890;48.158;11.540;2022-09-21T01:45:38;9.70;86.70
1786;DHT22;890;48.158;11.540;2022-09-21T01:48:06;9.60;86.90
1786;DHT22;890;48.158;11.540;2022-09-21T01:50:36;9.60;87.30
1786;DHT22;890;48.158;11.540;2022-09-21T01:53:08;9.60;87.40
1786;DHT22;890;48.158;11.540;2022-09-21T01:55:41;9.60;87.50
1786;DHT22;890;48.158;11.540;2022-09-21T02:00:43;9.50;87.70
1786;DHT22;890;48.158;11.540;2022-09-21T02:03:17;9.60;87.60
1786;DHT22;890;48.158;11.540;2022-09-21T02:05:46;9.60;87.60
1786;DHT22;890;48.158;11.540;2022-09-21T02:08:11;9.60;87.80
1786;DHT22;890;48.158;11.540;2022-09-21T02:10:48;9.60;87.90
1786;DHT22;890;48.158;11.540;2022-09-21T02:13:16;9.50;87.90
1786;DHT22;890;48.158;11.540;2022-09-21T02:16:14;9.60;88.00
1786;DHT22;890;48.158;11.540;2022-09-21T02:24:32;9.50;87.90
1786;DHT22;890;48.158;11.540;2022-09-21T02:29:36;9.50;88.40
1786;DHT22;890;48.158;11.540;2022-09-21T02:32:14;9.40;88.50
1786;DHT22;890;48.158;11.540;2022-09-21T02:35:10;9.40;88.40
1786;DHT22;890;48.158;11.540;2022-09-21T02:37:47;9.30;88.40
1786;DHT22;890;48.158;11.540;2022-09-21T02:40:33;9.40;88.60
1786;DHT22;890;48.158;11.540;2022-09-21T02:43:05;9.30;88.60
1786;DHT22;890;48.158;11.540;2022-09-21T02:45:38;9.40;88.90
1786;DHT22;890;48.158;11.540;2022-09-21T02:48:10;9.40;89.00
1786;DHT22;890;48.158;11.540;2022-09-21T02:50:42;9.40;89.00
1786;DHT22;890;48.158;11.540;2022-09-21T02:53:10;9.40;89.00
1786;DHT22;890;48.158;11.540;2022-09-21T02:55:36;9.40;88.80
1786;DHT22;890;48.158;11.540;2022-09-21T02:58:05;9.40;88.90
1786;DHT22;890;48.158;11.540;2022-09-21T03:00:34;9.40;89.20
1786;DHT22;890;48.158;11.540;2022-09-21T03:03:00;9.40;89.30
1786;DHT22;890;48.158;11.540;2022-09-21T03:05:40;9.40;89.40
1786;DHT22;890;48.158;11.540;2022-09-21T03:08:06;9.30;89.30
1786;DHT22;890;48.158;11.540;2022-09-21T03:10:31;9.30;89.40
1786;DHT22;890;48.158;11.540;2022-09-21T03:12:57;9.30;89.60
1786;DHT22;890;48.158;11.540;2022-09-21T03:15:23;9.30;89.70
1786;DHT22;890;48.158;11.540;2022-09-21T03:17:50;9.30;89.70
1786;DHT22;890;48.158;11.540;2022-09-21T03:20:15;9.30;89.80
1786;DHT22;890;48.158;11.540;2022-09-21T03:22:41;9.30;89.80
1786;DHT22;890;48.158;11.540;2022-09-21T03:25:07;9.30;89.80
1786;DHT22;890;48.158;11.540;2022-09-21T03:27:37;9.30;89.90
1786;DHT22;890;48.158;11.540;2022-09-21T03:30:03;9.10;89.90
1786;DHT22;890;48.158;11.540;2022-09-21T03:32:29;9.20;90.00
1786;DHT22;890;48.158;11.540;2022-09-21T03:34:54;9.20;90.00
1786;DHT22;890;48.158;11.540;2022-09-21T03:37:20;9.20;90.00
1786;DHT22;890;48.158;11.540;2022-09-21T03:39:45;9.20;90.00
1786;DHT22;890;48.158;11.540;2022-09-21T03:42:11;9.20;90.00
1786;DHT22;890;48.158;11.540;2022-09-21T03:44:38;9.20;90.00
1786;DHT22;890;48.158;11.540;2022-09-21T03:47:06;9.20;89.90
1786;DHT22;890;48.158;11.540;2022-09-21T03:49:32;9.10;89.80
1786;DHT22;890;48.158;11.540;2022-09-21T03:51:58;9.10;90.00
1786;DHT22;890;48.158;11.540;2022-09-21T03:54:24;9.10;90.10
1786;DHT22;890;48.158;11.540;2022-09-21T03:56:50;9.10;90.20
1786;DHT22;890;48.158;11.540;2022-09-21T03:59:16;9.10;90.30
1786;DHT22;890;48.158;11.540;2022-09-21T04:01:42;9.10;90.30
1786;DHT22;890;48.158;11.540;2022-09-21T04:04:08;9.00;90.40
1786;DHT22;890;48.158;11.540;2022-09-21T04:06:35;9.00;90.40
1786;DHT22;890;48.158;11.540;2022-09-21T04:09:00;9.00;90.50
1786;DHT22;890;48.158;11.540;2022-09-21T04:11:27;9.00;90.50
1786;DHT22;890;48.158;11.540;2022-09-21T04:13:53;9.00;90.50
1786;DHT22;890;48.158;11.540;2022-09-21T04:16:24;9.00;90.50
1786;DHT22;890;48.158;11.540;2022-09-21T04:18:50;9.00;90.50
1786;DHT22;890;48.158;11.540;2022-09-21T04:21:19;9.00;90.60
1786;DHT22;890;48.158;11.540;2022-09-21T04:23:46;8.90;90.60
1786;DHT22;890;48.158;11.540;2022-09-21T04:26:21;8.90;90.60
1786;DHT22;890;48.158;11.540;2022-09-21T04:28:48;8.80;90.60
1786;DHT22;890;48.158;11.540;2022-09-21T04:31:13;8.90;90.60
1786;DHT22;890;48.158;11.540;2022-09-21T04:33:39;8.90;90.60
1786;DHT22;890;48.158;11.540;2022-09-21T04:36:05;8.90;90.60
1786;DHT22;890;48.158;11.540;2022-09-21T04:38:31;9.00;90.70
1786;DHT22;890;48.158;11.540;2022-09-21T04:40:57;8.80;90.60
1786;DHT22;890;48.158;11.540;2022-09-21T04:43:24;8.80;90.60
1786;DHT22;890;48.158;11.540;2022-09-21T04:45:50;8.80;90.70
1786;DHT22;890;48.158;11.540;2022-09-21T04:48:16;8.80;90.70
1786;DHT22;890;48.158;11.540;2022-09-21T04:50:42;8.80;90.70
1786;DHT22;890;48.158;11.540;2022-09-21T04:53:08;8.80;90.70
1786;DHT22;890;48.158;11.540;2022-09-21T04:55:34;8.60;90.60
1786;DHT22;890;48.158;11.540;2022-09-21T04:57:59;8.80;90.80
1786;DHT22;890;48.158;11.540;2022-09-21T05:00:25;8.80;90.70
1786;DHT22;890;48.158;11.540;2022-09-21T05:02:51;8.80;90.80
1786;DHT22;890;48.158;11.540;2022-09-21T05:05:16;8.80;90.90
1786;DHT22;890;48.158;11.540;2022-09-21T05:07:42;8.70;90.80
1786;DHT22;890;48.158;11.540;2022-09-21T05:10:09;8.70;90.80
1786;DHT22;890;48.158;11.540;2022-09-21T05:12:35;8.70;90.90
1786;DHT22;890;48.158;11.540;2022-09-21T05:15:01;8.70;90.90
1786;DHT22;890;48.158;11.540;2022-09-21T05:17:27;8.80;91.00
1786;DHT22;890;48.158;11.540;2022-09-21T05:19:53;8.70;90.90
1786;DHT22;890;48.158;11.540;2022-09-21T05:22:19;8.70;90.90
1786;DHT22;890;48.158;11.540;2022-09-21T05:24:44;8.70;90.90
1786;DHT22;890;48.158;11.540;2022-09-21T05:27:10;8.70;90.90
1786;DHT22;890;48.158;11.540;2022-09-21T05:29:38;8.70;91.10
1786;DHT22;890;48.158;11.540;2022-09-21T05:32:37;8.80;91.10
1786;DHT22;890;48.158;11.540;2022-09-21T05:35:07;8.70;91.10
1786;DHT22;890;48.158;11.540;2022-09-21T05:40:22;8.80;91.00
1786;DHT22;890;48.158;11.540;2022-09-21T05:42:48;9.00;91.00
1786;DHT22;890;48.158;11.540;2022-09-21T05:45:16;9.00;90.80
1786;DHT22;890;48.158;11.540;2022-09-21T06:01:18;9.30;91.10
1786;DHT22;890;48.158;11.540;2022-09-21T06:03:48;9.50;91.20
1786;DHT22;890;48.158;11.540;2022-09-21T06:06:18;9.70;91.20
1786;DHT22;890;48.158;11.540;2022-09-21T06:08:44;9.80;91.10
1786;DHT22;890;48.158;11.540;2022-09-21T06:11:10;9.90;91.00
1786;DHT22;890;48.158;11.540;2022-09-21T06:13:36;8.60;90.30
1786;DHT22;890;48.158;11.540;2022-09-21T06:16:02;10.10;90.40
1786;DHT22;890;48.158;11.540;2022-09-21T06:18:28;10.20;90.30
1786;DHT22;890;48.158;11.540;2022-09-21T06:20:54;10.40;90.20
1786;DHT22;890;48.158;11.540;2022-09-21T06:23:20;10.40;90.10
1786;DHT22;890;48.158;11.540;2022-09-21T06:25:52;10.50;90.10
1786;DHT22;890;48.158;11.540;2022-09-21T06:28:18;10.50;89.90
1786;DHT22;890;48.158;11.540;2022-09-21T06:30:50;10.70;89.70
1786;DHT22;890;48.158;11.540;2022-09-21T06:33:16;10.70;89.40
1786;DHT22;890;48.158;11.540;2022-09-21T06:35:54;10.90;89.50
1786;DHT22;890;48.158;11.540;2022-09-21T06:38:20;10.90;88.90
1786;DHT22;890;48.158;11.540;2022-09-21T06:40:46;11.10;88.60
1786;DHT22;890;48.158;11.540;2022-09-21T06:43:11;11.20;88.10
1786;DHT22;890;48.158;11.540;2022-09-21T06:45:37;11.30;88.00
1786;DHT22;890;48.158;11.540;2022-09-21T06:48:03;12.80;89.20
1786;DHT22;890;48.158;11.540;2022-09-21T06:50:28;11.50;87.50
1786;DHT22;890;48.158;11.540;2022-09-21T06:52:54;11.50;87.40
1786;DHT22;890;48.158;11.540;2022-09-21T06:55:19;11.60;87.30
1786;DHT22;890;48.158;11.540;2022-09-21T06:57:45;11.70;87.00
1786;DHT22;890;48.158;11.540;2022-09-21T07:00:12;11.80;86.50
1786;DHT22;890;48.158;11.540;2022-09-21T07:02:41;11.80;86.20
1786;DHT22;890;48.158;11.540;2022-09-21T07:05:07;11.90;85.80
1786;DHT22;890;48.158;11.540;2022-09-21T07:07:32;11.90;85.20
1786;DHT22;890;48.158;11.540;2022-09-21T07:09:58;12.00;85.10
1786;DHT22;890;48.158;11.540;2022-09-21T07:12:27;12.00;84.70
1786;DHT22;890;48.158;11.540;2022-09-21T07:14:53;12.10;84.30
1786;DHT22;890;48.158;11.540;2022-09-21T07:17:18;12.10;84.10
1786;DHT22;890;48.158;11.540;2022-09-21T07:19:44;12.20;83.60
1786;DHT22;890;48.158;11.540;2022-09-21T07:22:10;12.20;83.40
1786;DHT22;890;48.158;11.540;2022-09-21T07:24:35;12.30;83.30
1786;DHT22;890;48.158;11.540;2022-09-21T07:27:01;12.30;83.10
1786;DHT22;890;48.158;11.540;2022-09-21T07:29:26;12.30;82.50
1786;DHT22;890;48.158;11.540;2022-09-21T07:31:52;12.30;82.10
1786;DHT22;890;48.158;11.540;2022-09-21T07:34:18;12.30;82.10
1786;DHT22;890;48.158;11.540;2022-09-21T07:36:43;12.30;81.90
1786;DHT22;890;48.158;11.540;2022-09-21T07:39:09;12.40;81.70
1786;DHT22;890;48.158;11.540;2022-09-21T07:41:36;12.40;81.60
1786;DHT22;890;48.158;11.540;2022-09-21T07:44:02;12.50;81.50
1786;DHT22;890;48.158;11.540;2022-09-21T07:46:28;12.60;81.60
1786;DHT22;890;48.158;11.540;2022-09-21T07:48:54;12.70;81.60
1786;DHT22;890;48.158;11.540;2022-09-21T07:51:20;12.80;81.50
1786;DHT22;890;48.158;11.540;2022-09-21T07:53:45;12.90;81.30
1786;DHT22;890;48.158;11.540;2022-09-21T07:56:15;12.90;80.30
1786;DHT22;890;48.158;11.540;2022-09-21T07:58:41;12.80;79.90
1786;DHT22;890;48.158;11.540;2022-09-21T08:01:26;12.80;79.80
1786;DHT22;890;48.158;11.540;2022-09-21T08:03:54;12.80;80.00
1786;DHT22;890;48.158;11.540;2022-09-21T08:06:21;12.90;80.00
1786;DHT22;890;48.158;11.540;2022-09-21T08:08:47;12.80;79.40
1786;DHT22;890;48.158;11.540;2022-09-21T08:11:14;12.80;78.70
1786;DHT22;890;48.158;11.540;2022-09-21T08:13:40;12.80;78.30
1786;DHT22;890;48.158;11.540;2022-09-21T08:16:06;12.90;78.40
1786;DHT22;890;48.158;11.540;2022-09-21T08:18:35;13.00;78.20
1786;DHT22;890;48.158;11.540;2022-09-21T08:21:01;13.00;77.60
1786;DHT22;890;48.158;11.540;2022-09-21T08:23:28;13.00;77.40
1786;DHT22;890;48.158;11.540;2022-09-21T08:26:01;13.00;77.50
1786;DHT22;890;48.158;11.540;2022-09-21T08:28:28;13.10;77.10
1786;DHT22;890;48.158;11.540;2022-09-21T08:31:02;13.20;76.60
1786;DHT22;890;48.158;11.540;2022-09-21T08:33:28;13.30;76.00
1786;DHT22;890;48.158;11.540;2022-09-21T08:35:55;13.30;76.20
1786;DHT22;890;48.158;11.540;2022-09-21T08:38:21;13.50;76.10
1786;DHT22;890;48.158;11.540;2022-09-21T08:40:48;13.60;75.60
1786;DHT22;890;48.158;11.540;2022-09-21T08:43:25;13.70;75.00
1786;DHT22;890;48.158;11.540;2022-09-21T08:45:54;13.90;74.50
1786;DHT22;890;48.158;11.540;2022-09-21T08:48:27;14.00;74.30
1786;DHT22;890;48.158;11.540;2022-09-21T08:50:59;14.10;73.30
1786;DHT22;890;48.158;11.540;2022-09-21T08:55:58;14.50;72.20
1786;DHT22;890;48.158;11.540;2022-09-21T08:58:25;14.80;71.50
1786;DHT22;890;48.158;11.540;2022-09-21T09:01:13;15.20;79.30
1786;DHT22;890;48.158;11.540;2022-09-21T09:19:39;22.80;73.50
1786;DHT22;890;48.158;11.540;2022-09-21T09:22:11;23.00;71.80
1786;DHT22;890;48.158;11.540;2022-09-21T09:25:01;24.00;73.10
1786;DHT22;890;48.158;11.540;2022-09-21T09:27:37;24.60;70.70
1786;DHT22;890;48.158;11.540;2022-09-21T09:32:44;26.70;64.00
1786;DHT22;890;48.158;11.540;2022-09-21T09:37:50;26.90;56.90
1786;DHT22;890;48.158;11.540;2022-09-21T09:40:38;26.70;56.30
1786;DHT22;890;48.158;11.540;2022-09-21T09:51:42;23.30;44.20
1786;DHT22;890;48.158;11.540;2022-09-21T09:54:13;22.80;48.00
1786;DHT22;890;48.158;11.540;2022-09-21T09:56:40;22.30;47.50
1786;DHT22;890;48.158;11.540;2022-09-21T09:59:18;21.80;47.60
1786;DHT22;890;48.158;11.540;2022-09-21T10:02:01;22.50;51.70
1786;DHT22;890;48.158;11.540;2022-09-21T10:04:28;23.20;49.30
1786;DHT22;890;48.158;11.540;2022-09-21T10:06:54;23.60;49.30
1786;DHT22;890;48.158;11.540;2022-09-21T10:09:27;24.50;50.60
1786;DHT22;890;48.158;11.540;2022-09-21T10:12:14;25.40;50.20
1786;DHT22;890;48.158;11.540;2022-09-21T10:14:47;26.50;49.10
1786;DHT22;890;48.158;11.540;2022-09-21T10:17:16;27.30;46.40
1786;DHT22;890;48.158;11.540;2022-09-21T10:19:42;26.90;42.40
1786;DHT22;890;48.158;11.540;2022-09-21T10:22:15;26.20;41.50
1786;DHT22;890;48.158;11.540;2022-09-21T10:24:45;25.60;42.80
1786;DHT22;890;48.158;11.540;2022-09-21T10:27:15;25.90;44.80
1786;DHT22;890;48.158;11.540;2022-09-21T10:29:47;26.60;44.60
1786;DHT22;890;48.158;11.540;2022-09-21T10:34:39;27.10;44.10
1786;DHT22;890;48.158;11.540;2022-09-21T10:37:29;27.50;42.80
1786;DHT22;890;48.158;11.540;2022-09-21T10:39:55;27.20;40.50
1786;DHT22;890;48.158;11.540;2022-09-21T10:42:22;27.50;42.90
1786;DHT22;890;48.158;11.540;2022-09-21T10:44:49;27.60;42.30
1786;DHT22;890;48.158;11.540;2022-09-21T10:50:06;28.40;42.10
1786;DHT22;890;48.158;11.540;2022-09-21T10:52:44;28.90;41.40
1786;DHT22;890;48.158;11.540;2022-09-21T10:55:21;29.40;42.20
1786;DHT22;890;48.158;11.540;2022-09-21T10:57:48;29.60;40.40
1786;DHT22;890;48.158;11.540;2022-09-21T11:02:46;27.40;37.90
1786;DHT22;890;48.158;11.540;2022-09-21T11:05:39;27.00;39.90
1786;DHT22;890;48.158;11.540;2022-09-21T11:08:21;26.00;37.10
1786;DHT22;890;48.158;11.540;2022-09-21T11:11:25;26.00;39.40
1786;DHT22;890;48.158;11.540;2022-09-21T11:14:00;26.50;40.70
1786;DHT22;890;48.158;11.540;2022-09-21T11:16:38;27.60;40.00
1786;DHT22;890;48.158;11.540;2022-09-21T11:19:19;27.70;38.30
1786;DHT22;890;48.158;11.540;2022-09-21T11:22:11;27.90;37.60
1786;DHT22;890;48.158;11.540;2022-09-21T11:27:38;28.20;36.80
1786;DHT22;890;48.158;11.540;2022-09-21T11:30:13;28.30;36.00
1786;DHT22;890;48.158;11.540;2022-09-21T11:35:44;28.60;37.50
1786;DHT22;890;48.158;11.540;2022-09-21T11:38:51;28.60;36.90
1786;DHT22;890;48.158;11.540;2022-09-21T11:44:32;26.80;34.30
1786;DHT22;890;48.158;11.540;2022-09-21T11:47:21;26.10;35.60
1786;DHT22;890;48.158;11.540;2022-09-21T11:50:04;25.20;36.10
1786;DHT22;890;48.158;11.540;2022-09-21T12:00:46;24.40;35.90
1786;DHT22;890;48.158;11.540;2022-09-21T12:09:01;22.10;37.00
1786;DHT22;890;48.158;11.540;2022-09-21T12:22:39;18.90;40.90
1786;DHT22;890;48.158;11.540;2022-09-21T12:25:31;18.60;41.30
1786;DHT22;890;48.158;11.540;2022-09-21T12:30:37;18.40;42.50
1786;DHT22;890;48.158;11.540;2022-09-21T12:33:34;18.20;42.60
1786;DHT22;890;48.158;11.540;2022-09-21T12:38:39;18.10;42.90
1786;DHT22;890;48.158;11.540;2022-09-21T12:46:39;18.00;43.10
1786;DHT22;890;48.158;11.540;2022-09-21T12:49:16;17.70;43.20
1786;DHT22;890;48.158;11.540;2022-09-21T12:51:49;17.60;43.50
1786;DHT22;890;48.158;11.540;2022-09-21T12:54:28;17.30;43.90
1786;DHT22;890;48.158;11.540;2022-09-21T12:57:11;17.00;43.90
1786;DHT22;890;48.158;11.540;2022-09-21T13:00:10;16.80;44.50
1786;DHT22;890;48.158;11.540;2022-09-21T13:10:39;16.70;45.90
1786;DHT22;890;48.158;11.540;2022-09-21T13:13:13;16.90;46.00
1786;DHT22;890;48.158;11.540;2022-09-21T13:15:45;17.00;45.80
1786;DHT22;890;48.158;11.540;2022-09-21T13:18:33;17.10;45.30
1786;DHT22;890;48.158;11.540;2022-09-21T13:21:13;17.10;45.40
1786;DHT22;890;48.158;11.540;2022-09-21T13:23:39;16.90;45.00
1786;DHT22;890;48.158;11.540;2022-09-21T13:26:11;16.70;45.20
1786;DHT22;890;48.158;11.540;2022-09-21T13:29:04;16.70;45.70
1786;DHT22;890;48.158;11.540;2022-09-21T13:34:24;16.50;45.80
1786;DHT22;890;48.158;11.540;2022-09-21T13:39:53;16.40;46.10
1786;DHT22;890;48.158;11.540;2022-09-21T13:47:56;16.30;46.00
1786;DHT22;890;48.158;11.540;2022-09-21T13:50:38;16.40;46.20
1786;DHT22;890;48.158;11.540;2022-09-21T13:53:24;16.30;45.90
1786;DHT22;890;48.158;11.540;2022-09-21T13:55:59;16.40;46.30
1786;DHT22;890;48.158;11.540;2022-09-21T13:58:26;16.30;46.20
1786;DHT22;890;48.158;11.540;2022-09-21T14:00:59;16.40;46.90
1786;DHT22;890;48.158;11.540;2022-09-21T14:03:30;16.30;46.10
1786;DHT22;890;48.158;11.540;2022-09-21T14:06:06;16.80;46.60
1786;DHT22;890;48.158;11.540;2022-09-21T14:08:38;16.30;46.30
1786;DHT22;890;48.158;11.540;2022-09-21T14:11:06;16.30;46.20
1786;DHT22;890;48.158;11.540;2022-09-21T14:13:45;16.40;46.20
1786;DHT22;890;48.158;11.540;2022-09-21T14:24:36;16.20;46.30
1786;DHT22;890;48.158;11.540;2022-09-21T14:27:04;16.20;46.40
1786;DHT22;890;48.158;11.540;2022-09-21T14:29:43;16.10;46.30
1786;DHT22;890;48.158;11.540;2022-09-21T14:32:16;16.10;46.50
1786;DHT22;890;48.158;11.540;2022-09-21T14:34:46;16.10;46.50
1786;DHT22;890;48.158;11.540;2022-09-21T14:37:30;16.10;46.40
1786;DHT22;890;48.158;11.540;2022-09-21T14:39:58;16.10;46.50
1786;DHT22;890;48.158;11.540;2022-09-21T14:42:27;16.10;46.50
1786;DHT22;890;48.158;11.540;2022-09-21T14:44:58;16.00;46.50
1786;DHT22;890;48.158;11.540;2022-09-21T14:50:32;16.00;46.60
1786;DHT22;890;48.158;11.540;2022-09-21T14:58:41;15.90;46.50
1786;DHT22;890;48.158;11.540;2022-09-21T15:06:43;15.90;46.50
1786;DHT22;890;48.158;11.540;2022-09-21T15:09:50;15.90;46.60
1786;DHT22;890;48.158;11.540;2022-09-21T15:12:50;15.70;46.50
1786;DHT22;890;48.158;11.540;2022-09-21T15:15:40;15.70;46.60
1786;DHT22;890;48.158;11.540;2022-09-21T15:18:17;15.70;46.30
1786;DHT22;890;48.158;11.540;2022-09-21T15:20:59;15.70;45.80
1786;DHT22;890;48.158;11.540;2022-09-21T15:23:35;15.70;45.90
1786;DHT22;890;48.158;11.540;2022-09-21T15:26:08;15.70;46.30
1786;DHT22;890;48.158;11.540;2022-09-21T15:28:42;15.80;46.30
1786;DHT22;890;48.158;11.540;2022-09-21T15:31:13;15.70;46.20
1786;DHT22;890;48.158;11.540;2022-09-21T15:33:41;15.70;46.40
1786;DHT22;890;48.158;11.540;2022-09-21T15:36:11;15.60;46.70
1786;DHT22;890;48.158;11.540;2022-09-21T15:38:37;15.70;47.00
1786;DHT22;890;48.158;11.540;2022-09-21T15:41:36;15.70;47.40
1786;DHT22;890;48.158;11.540;2022-09-21T15:44:20;15.60;47.40
1786;DHT22;890;48.158;11.540;2022-09-21T15:46:48;15.60;47.40
1786;DHT22;890;48.158;11.540;2022-09-21T15:49:17;15.60;47.90
1786;DHT22;890;48.158;11.540;2022-09-21T15:51:51;15.60;47.30
1786;DHT22;890;48.158;11.540;2022-09-21T15:54:35;15.50;47.20
1786;DHT22;890;48.158;11.540;2022-09-21T15:57:05;15.40;47.00
1786;DHT22;890;48.158;11.540;2022-09-21T15:59:32;15.40;47.00
1786;DHT22;890;48.158;11.540;2022-09-21T16:02:00;15.40;47.00
1786;DHT22;890;48.158;11.540;2022-09-21T16:04:35;15.40;47.20
1786;DHT22;890;48.158;11.540;2022-09-21T16:07:06;15.40;47.20
1786;DHT22;890;48.158;11.540;2022-09-21T16:09:41;15.30;47.60
1786;DHT22;890;48.158;11.540;2022-09-21T16:12:42;15.30;47.70
1786;DHT22;890;48.158;11.540;2022-09-21T16:17:54;15.20;48.50
1786;DHT22;890;48.158;11.540;2022-09-21T16:20:22;15.20;48.80
1786;DHT22;890;48.158;11.540;2022-09-21T16:22:51;15.20;49.10
1786;DHT22;890;48.158;11.540;2022-09-21T16:28:25;15.10;49.20
1786;DHT22;890;48.158;11.540;2022-09-21T16:30:52;15.00;49.60
1786;DHT22;890;48.158;11.540;2022-09-21T16:38:51;14.80;50.00
1786;DHT22;890;48.158;11.540;2022-09-21T16:41:39;16.30;51.30
1786;DHT22;890;48.158;11.540;2022-09-21T16:44:12;14.70;50.50
1786;DHT22;890;48.158;11.540;2022-09-21T16:46:57;14.70;50.60
1786;DHT22;890;48.158;11.540;2022-09-21T16:49:24;14.60;50.90
1786;DHT22;890;48.158;11.540;2022-09-21T16:51:52;14.70;51.10
1786;DHT22;890;48.158;11.540;2022-09-21T16:54:20;14.60;51.90
1786;DHT22;890;48.158;11.540;2022-09-21T16:56:51;14.50;51.50
1786;DHT22;890;48.158;11.540;2022-09-21T16:59:18;14.60;51.90
1786;DHT22;890;48.158;11.540;2022-09-21T17:01:49;14.40;52.00
1786;DHT22;890;48.158;11.540;2022-09-21T17:04:16;14.40;52.20
1786;DHT22;890;48.158;11.540;2022-09-21T17:06:42;14.30;52.40
1786;DHT22;890;48.158;11.540;2022-09-21T17:09:17;14.30;52.60
1786;DHT22;890;48.158;11.540;2022-09-21T17:11:43;14.20;52.90
1786;DHT22;890;48.158;11.540;2022-09-21T17:14:12;14.20;52.90
1786;DHT22;890;48.158;11.540;2022-09-21T17:16:44;14.20;53.00
1786;DHT22;890;48.158;11.540;2022-09-21T17:19:10;14.10;53.10
1786;DHT22;890;48.158;11.540;2022-09-21T17:21:36;14.10;53.20
1786;DHT22;890;48.158;11.540;2022-09-21T17:24:02;14.10;53.30
1786;DHT22;890;48.158;11.540;2022-09-21T17:26:28;13.90;53.40
1786;DHT22;890;48.158;11.540;2022-09-21T17:28:53;14.60;54.20
1786;DHT22;890;48.158;11.540;2022-09-21T17:31:21;13.90;53.70
1786;DHT22;890;48.158;11.540;2022-09-21T17:33:48;13.90;53.80
1786;DHT22;890;48.158;11.540;2022-09-21T17:36:16;13.90;53.90
1786;DHT22;890;48.158;11.540;2022-09-21T17:38:43;13.80;54.10
1786;DHT22;890;48.158;11.540;2022-09-21T17:41:41;13.80;54.30
1786;DHT22;890;48.158;11.540;2022-09-21T17:44:26;13.70;54.60
1786;DHT22;890;48.158;11.540;2022-09-21T17:47:24;13.60;54.20
1786;DHT22;890;48.158;11.540;2022-09-21T17:49:52;13.60;54.40
1786;DHT22;890;48.158;11.540;2022-09-21T17:52:20;13.60;54.50
1786;DHT22;890;48.158;11.540;2022-09-21T17:55:07;13.60;54.60
1786;DHT22;890;48.158;11.540;2022-09-21T17:58:01;13.50;54.60
1786;DHT22;890;48.158;11.540;2022-09-21T18:00:46;13.50;55.00
1786;DHT22;890;48.158;11.540;2022-09-21T18:03:21;13.40;55.10
1786;DHT22;890;48.158;11.540;2022-09-21T18:05:51;13.30;55.00
1786;DHT22;890;48.158;11.540;2022-09-21T18:08:19;13.30;55.20
1786;DHT22;890;48.158;11.540;2022-09-21T18:10:56;13.30;55.20
1786;DHT22;890;48.158;11.540;2022-09-21T18:13:29;15.30;57.20
1786;DHT22;890;48.158;11.540;2022-09-21T18:16:03;13.20;55.50
1786;DHT22;890;48.158;11.540;2022-09-21T18:21:31;13.20;55.80
1786;DHT22;890;48.158;11.540;2022-09-21T18:24:36;13.20;55.70
1786;DHT22;890;48.158;11.540;2022-09-21T18:27:02;13.10;56.00
1786;DHT22;890;48.158;11.540;2022-09-21T18:29:32;13.20;56.00
1786;DHT22;890;48.158;11.540;2022-09-21T18:45:24;12.90;56.90
1786;DHT22;890;48.158;11.540;2022-09-21T18:51:20;12.80;57.10
1786;DHT22;890;48.158;11.540;2022-09-21T18:53:51;12.80;57.10
1786;DHT22;890;48.158;11.540;2022-09-21T18:56:18;12.80;57.20
1786;DHT22;890;48.158;11.540;2022-09-21T18:58:44;12.80;57.40
1786;DHT22;890;48.158;11.540;2022-09-21T19:01:11;12.80;57.60
1786;DHT22;890;48.158;11.540;2022-09-21T19:03:38;12.70;57.80
1786;DHT22;890;48.158;11.540;2022-09-21T19:08:54;12.60;58.10
1786;DHT22;890;48.158;11.540;2022-09-21T19:11:56;12.50;58.30
1786;DHT22;890;48.158;11.540;2022-09-21T19:14:32;12.50;58.50
1786;DHT22;890;48.158;11.540;2022-09-21T19:19:46;12.50;58.60
1786;DHT22;890;48.158;11.540;2022-09-21T19:25:43;12.40;59.40
1786;DHT22;890;48.158;11.540;2022-09-21T19:30:45;12.30;59.30
1786;DHT22;890;48.158;11.540;2022-09-21T19:33:26;12.20;59.30
1786;DHT22;890;48.158;11.540;2022-09-21T19:35:53;12.20;59.80
1786;DHT22;890;48.158;11.540;2022-09-21T19:38:19;12.20;59.60
1786;DHT22;890;48.158;11.540;2022-09-21T19:40:47;12.20;59.90
1786;DHT22;890;48.158;11.540;2022-09-21T19:46:28;12.10;60.50
1786;DHT22;890;48.158;11.540;2022-09-21T19:49:17;12.10;60.70
1786;DHT22;890;48.158;11.540;2022-09-21T19:51:48;12.00;60.80
1786;DHT22;890;48.158;11.540;2022-09-21T19:54:17;12.00;61.00
1786;DHT22;890;48.158;11.540;2022-09-21T19:57:16;12.00;61.20
1786;DHT22;890;48.158;11.540;2022-09-21T20:00:04;11.90;61.40
1786;DHT22;890;48.158;11.540;2022-09-21T20:02:38;11.90;61.50
1786;DHT22;890;48.158;11.540;2022-09-21T20:05:18;11.80;61.90
1786;DHT22;890;48.158;11.540;2022-09-21T20:10:51;11.70;62.50
1786;DHT22;890;48.158;11.540;2022-09-21T20:13:31;11.60;62.60
1786;DHT22;890;48.158;11.540;2022-09-21T20:19:18;11.60;63.10